Terminal Aerodrome Forecast
Issued by NWS

Home | Current Version | Previous Version | Text Only | Print | Product List | Glossary Off
Versions: 1 2 3 4 5 6 7 8 9 10 11 12 13 14 15 16 17 18 19 20 21 22 23 24 25 26

751
FTUS43 KLOT 092058 AAA
TAFORD
TAF AMD
KORD 092058Z 0921/1024 32014G20KT 6SM -SHSN BKN025 BKN035
      TEMPO 0923/1002 3SM -SHSN BKN020
     FM100300 31013G20KT P6SM BKN035 OVC050
     FM101300 31012KT P6SM SCT020 BKN250=

USA.gov is the U.S. government's official web portal to all federal, state and local government web resources and services.